Time;durP1;ratioP1;P1;durP2;ratioP2;P2;SDS_P1;SDS_P2;PMS_P1;PMS_P2;Temp;Humidity;BMP_temperature;BMP_pressure;BME280_temperature;BME280_humidity;BME280_pressure;Samples;Min_cycle;Max_cycle;Signal;HPM_P1;HPM_P2
2022/11/05 00:09:32;;;;;;;1.77;1.30;;;20.20;90.90;;;;;;6275166;22;45215;-71
2022/11/05 00:17:30;;;;;;;1.75;1.35;;;20.20;90.80;;;;;;6273788;22;45322;-71
2022/11/05 00:19:58;;;;;;;1.77;1.30;;;20.20;90.60;;;;;;6274724;22;45246;-72
2022/11/05 00:25:16;;;;;;;2.50;1.70;;;20.20;90.70;;;;;;6274594;22;45227;-71
2022/11/05 00:27:44;;;;;;;2.17;1.48;;;20.20;90.60;;;;;;6274334;22;45215;-70
2022/11/05 00:30:13;;;;;;;2.38;1.50;;;20.20;90.70;;;;;;6274185;22;45329;-71
2022/11/05 00:32:40;;;;;;;5.03;1.40;;;20.20;90.60;;;;;;6275379;22;45390;-71
2022/11/05 00:35:08;;;;;;;2.55;1.60;;;20.20;90.70;;;;;;6274846;22;47513;-70
2022/11/05 00:37:36;;;;;;;1.40;1.30;;;20.20;90.70;;;;;;6274707;22;46402;-71
2022/11/05 00:40:03;;;;;;;1.58;1.25;;;20.20;90.60;;;;;;6274510;22;45234;-71
2022/11/05 00:45:15;;;;;;;3.83;1.50;;;20.20;90.50;;;;;;6271003;22;45342;-70
2022/11/05 00:50:27;;;;;;;2.25;1.40;;;20.10;90.50;;;;;;6273830;22;45319;-71
2022/11/05 00:52:58;;;;;;;1.63;1.23;;;20.10;90.40;;;;;;6274675;22;45272;-70
2022/11/05 00:55:32;;;;;;;2.42;1.63;;;20.10;90.30;;;;;;6275209;22;47292;-70
2022/11/05 00:57:59;;;;;;;2.17;1.30;;;20.10;90.30;;;;;;6274024;22;46144;-71
2022/11/05 01:00:28;;;;;;;2.55;1.33;;;20.10;90.20;;;;;;6275250;22;45281;-71
2022/11/05 01:02:58;;;;;;;2.13;1.48;;;20.10;89.90;;;;;;6274369;22;45256;-70
2022/11/05 01:05:26;;;;;;;2.08;1.40;;;20.10;89.20;;;;;;6274604;22;47722;-70
2022/11/05 01:07:54;;;;;;;2.20;1.40;;;20.10;88.90;;;;;;6274690;22;46186;-70
2022/11/05 01:10:22;;;;;;;2.60;1.40;;;20.10;89.00;;;;;;6274697;22;45283;-70
2022/11/05 01:12:49;;;;;;;3.20;1.40;;;20.10;89.20;;;;;;6275166;22;45334;-71
2022/11/05 01:15:17;;;;;;;2.47;1.38;;;20.10;89.80;;;;;;6274526;22;46384;-71
2022/11/05 01:17:44;;;;;;;3.70;1.50;;;20.10;90.00;;;;;;6274551;22;45639;-71
2022/11/05 01:20:11;;;;;;;2.10;1.55;;;20.10;90.10;;;;;;6274846;22;45252;-70
2022/11/05 01:22:38;;;;;;;1.90;1.02;;;20.10;90.20;;;;;;6274788;22;45497;-69
2022/11/05 01:25:08;;;;;;;2.22;1.33;;;20.10;90.20;;;;;;6274802;22;47121;-70
2022/11/05 01:27:36;;;;;;;1.83;1.25;;;20.10;90.20;;;;;;6273729;22;45358;-70
2022/11/05 01:30:03;;;;;;;3.22;1.55;;;20.10;90.40;;;;;;6275278;22;45148;-71
2022/11/05 01:32:30;;;;;;;1.65;1.10;;;20.10;90.30;;;;;;6274740;22;45459;-71
2022/11/05 01:34:57;;;;;;;1.85;1.10;;;20.10;90.40;;;;;;6275265;22;47158;-70
2022/11/05 01:37:24;;;;;;;2.50;1.40;;;20.10;90.40;;;;;;6274599;22;45850;-70
2022/11/05 01:39:51;;;;;;;2.40;1.27;;;20.10;90.40;;;;;;6274590;22;45474;-70
2022/11/05 01:42:21;;;;;;;2.13;1.30;;;20.10;90.50;;;;;;6274327;22;45431;-71
2022/11/05 01:44:55;;;;;;;2.20;1.25;;;20.10;90.50;;;;;;6270875;22;46432;-71
2022/11/05 01:47:36;;;;;;;1.98;1.27;;;20.10;90.40;;;;;;6273895;22;45319;-71
2022/11/05 01:50:06;;;;;;;2.67;2.00;;;20.10;90.50;;;;;;6272530;22;45192;-70
2022/11/05 01:52:34;;;;;;;1.85;1.15;;;20.10;90.60;;;;;;6275358;22;45259;-70
2022/11/05 01:55:03;;;;;;;2.58;1.27;;;20.10;90.60;;;;;;6274133;22;45327;-70
2022/11/05 01:57:32;;;;;;;1.92;1.20;;;20.10;90.60;;;;;;6273547;22;45458;-71
2022/11/05 02:00:01;;;;;;;2.13;1.30;;;20.10;90.60;;;;;;6274821;22;45446;-71
2022/11/05 02:02:30;;;;;;;1.73;1.00;;;20.10;90.70;;;;;;6274564;22;45281;-70
2022/11/05 02:05:01;;;;;;;1.65;0.95;;;20.10;90.70;;;;;;6274894;22;46268;-71
2022/11/05 02:07:29;;;;;;;1.67;1.10;;;20.10;90.60;;;;;;6273322;22;45340;-71
2022/11/05 02:10:01;;;;;;;1.75;1.13;;;20.10;90.70;;;;;;6275151;22;45252;-71
2022/11/05 02:12:29;;;;;;;1.77;1.00;;;20.10;90.70;;;;;;6274688;22;45279;-71
2022/11/05 02:14:58;;;;;;;1.30;1.13;;;20.10;90.60;;;;;;6274821;22;46527;-70
2022/11/05 02:17:37;;;;;;;1.50;1.02;;;20.10;90.70;;;;;;6273440;22;45327;-72
2022/11/05 02:20:32;;;;;;;1.90;0.93;;;20.10;90.60;;;;;;6274081;22;45254;-70
2022/11/05 02:23:34;;;;;;;1.73;1.10;;;20.10;90.60;;;;;;6275073;22;45164;-71
2022/11/05 02:26:31;;;;;;;1.65;0.90;;;20.10;90.60;;;;;;6274735;22;48136;-71
2022/11/05 02:29:25;;;;;;;1.27;1.10;;;20.10;90.60;;;;;;6274260;22;45199;-70
2022/11/05 02:31:58;;;;;;;1.77;1.08;;;20.10;90.60;;;;;;6275119;22;45260;-71
2022/11/05 02:34:34;;;;;;;2.25;1.23;;;20.10;90.60;;;;;;6275128;22;45383;-72
2022/11/05 02:37:08;;;;;;;1.58;0.93;;;20.10;90.60;;;;;;6273486;22;45407;-71
2022/11/05 02:39:42;;;;;;;1.90;1.27;;;20.10;90.60;;;;;;6276585;22;45346;-71
2022/11/05 02:42:16;;;;;;;1.92;0.90;;;20.10;90.60;;;;;;6274264;22;45213;-70
2022/11/05 02:44:51;;;;;;;1.70;1.00;;;20.10;90.50;;;;;;6273628;22;45314;-71
2022/11/05 02:47:28;;;;;;;1.55;1.10;;;20.10;90.50;;;;;;6272954;22;47062;-72
2022/11/05 02:50:08;;;;;;;2.20;1.10;;;20.10;90.50;;;;;;6271569;22;45464;-71
2022/11/05 02:52:43;;;;;;;3.78;0.93;;;20.10;90.50;;;;;;6274482;22;45448;-71
2022/11/05 02:55:18;;;;;;;1.45;1.15;;;20.10;90.50;;;;;;6275192;22;45258;-70
2022/11/05 02:57:47;;;;;;;1.10;1.00;;;20.10;90.60;;;;;;6273661;22;45372;-72
2022/11/05 03:00:47;;;;;;;1.90;1.00;;;20.10;90.60;;;;;;6274621;22;45251;-70
2022/11/05 03:03:21;;;;;;;1.13;1.00;;;20.10;90.60;;;;;;6275048;22;45278;-72
2022/11/05 03:06:03;;;;;;;4.60;1.27;;;20.10;90.40;;;;;;6274340;22;45374;-71
2022/11/05 03:08:39;;;;;;;1.52;0.95;;;20.10;90.40;;;;;;6273970;22;47478;-71
2022/11/05 03:11:13;;;;;;;1.45;1.05;;;20.10;90.30;;;;;;6274343;22;45705;-71
2022/11/05 03:13:47;;;;;;;1.05;0.75;;;20.10;90.50;;;;;;6274836;22;45335;-71
2022/11/05 03:16:21;;;;;;;1.30;1.00;;;20.10;90.30;;;;;;6274615;22;45361;-70
2022/11/05 03:18:58;;;;;;;3.10;1.08;;;20.10;90.40;;;;;;6273569;22;47349;-71
2022/11/05 03:21:35;;;;;;;1.65;1.00;;;20.10;90.40;;;;;;6274286;22;45279;-71
2022/11/05 03:24:08;;;;;;;1.55;0.90;;;20.10;90.40;;;;;;6274456;22;45377;-71
2022/11/05 03:26:41;;;;;;;3.13;0.90;;;20.10;90.20;;;;;;6274042;22;45334;-72
2022/11/05 03:29:13;;;;;;;2.83;1.40;;;20.10;90.40;;;;;;6274436;22;45259;-70
2022/11/05 03:31:41;;;;;;;1.90;0.80;;;20.10;90.50;;;;;;6274614;22;45543;-71
2022/11/05 03:34:13;;;;;;;1.17;1.08;;;20.10;90.20;;;;;;6274007;22;45421;-71
2022/11/05 03:36:43;;;;;;;1.35;0.98;;;20.10;90.20;;;;;;6270877;22;45495;-71
2022/11/05 03:39:15;;;;;;;1.15;1.05;;;20.10;90.20;;;;;;6273202;22;47914;-71
2022/11/05 03:41:48;;;;;;;1.38;0.98;;;20.10;90.20;;;;;;6274205;22;45475;-71
2022/11/05 03:44:21;;;;;;;1.17;0.80;;;20.10;90.20;;;;;;6271467;22;45284;-71
2022/11/05 03:46:49;;;;;;;1.13;0.90;;;20.10;90.30;;;;;;6273503;22;45215;-70
2022/11/05 03:49:24;;;;;;;1.90;1.05;;;20.10;90.20;;;;;;6271793;22;45305;-71
2022/11/05 03:51:58;;;;;;;3.55;1.00;;;20.10;90.20;;;;;;6274369;22;45294;-71
2022/11/05 03:54:25;;;;;;;2.13;1.00;;;20.10;90.30;;;;;;6274594;22;45475;-71
2022/11/05 03:57:00;;;;;;;1.85;1.00;;;20.10;90.30;;;;;;6273129;22;45368;-71
2022/11/05 03:59:28;;;;;;;2.72;0.85;;;20.00;90.30;;;;;;6274389;22;47233;-71
2022/11/05 04:01:55;;;;;;;1.05;0.88;;;20.10;90.50;;;;;;6273611;22;45267;-71
2022/11/05 04:04:23;;;;;;;1.02;0.90;;;20.00;90.20;;;;;;6274026;22;45260;-71
2022/11/05 04:15:02;;;;;;;2.08;1.10;;;20.10;90.20;;;;;;6274817;22;45181;-71
2022/11/05 04:17:27;;;;;;;1.75;1.00;;;20.10;90.20;;;;;;6273102;22;45357;-70
2022/11/05 04:25:24;;;;;;;1.65;1.00;;;20.10;90.20;;;;;;6274253;22;45243;-72
2022/11/05 04:27:51;;;;;;;1.33;1.13;;;20.10;90.10;;;;;;6273172;22;45498;-71
2022/11/05 04:30:19;;;;;;;1.70;1.10;;;20.10;90.20;;;;;;6273232;22;47183;-72
2022/11/05 04:33:03;;;;;;;1.60;1.02;;;20.10;90.00;;;;;;6274175;22;45223;-72
2022/11/05 04:35:34;;;;;;;1.42;1.10;;;20.10;90.00;;;;;;6273757;22;45216;-71
2022/11/05 04:38:01;;;;;;;1.38;1.10;;;20.10;90.00;;;;;;6273183;22;45295;-71
2022/11/05 04:40:28;;;;;;;2.00;1.08;;;20.10;90.00;;;;;;6272974;22;48341;-71
2022/11/05 04:42:56;;;;;;;2.33;1.20;;;20.10;90.00;;;;;;6273380;22;45256;-70
2022/11/05 04:45:23;;;;;;;1.83;1.15;;;20.00;90.00;;;;;;6269057;22;45274;-71
2022/11/05 04:47:50;;;;;;;1.45;1.08;;;20.00;90.00;;;;;;6271885;22;45422;-70
2022/11/05 04:50:17;;;;;;;1.45;1.13;;;20.00;90.40;;;;;;6272264;22;45384;-71
2022/11/05 04:52:45;;;;;;;1.85;1.05;;;20.00;90.10;;;;;;6272902;22;45451;-70
2022/11/05 04:55:12;;;;;;;1.50;1.17;;;20.00;90.10;;;;;;6273798;22;45219;-71
2022/11/05 04:57:39;;;;;;;1.63;1.10;;;20.00;90.00;;;;;;6274608;22;45141;-71
2022/11/05 05:00:07;;;;;;;3.08;1.40;;;20.00;90.00;;;;;;6275118;22;46673;-70
2022/11/05 05:02:36;;;;;;;0.90;0.80;;;20.00;90.00;;;;;;6274903;22;45291;-70
2022/11/05 05:05:04;;;;;;;1.45;1.13;;;20.00;89.90;;;;;;6274721;22;45325;-71
2022/11/05 05:07:31;;;;;;;1.83;1.30;;;20.00;90.00;;;;;;6273137;22;45220;-69
2022/11/05 05:09:59;;;;;;;1.50;1.20;;;20.00;90.00;;;;;;6274690;22;47371;-69
2022/11/05 05:12:26;;;;;;;2.88;1.30;;;20.00;89.70;;;;;;6274867;22;45263;-68
2022/11/05 05:14:53;;;;;;;1.65;1.08;;;20.00;89.90;;;;;;6274759;22;45309;-69
2022/11/05 05:17:20;;;;;;;1.10;1.00;;;20.00;89.60;;;;;;6274179;22;45489;-69
2022/11/05 05:22:31;;;;;;;1.95;1.25;;;20.00;89.50;;;;;;6274991;22;45443;-69
2022/11/05 05:24:59;;;;;;;1.75;0.77;;;20.00;89.50;;;;;;6275093;22;45262;-68
2022/11/05 05:27:28;;;;;;;2.55;1.10;;;20.00;89.50;;;;;;6274042;22;45246;-69
2022/11/05 05:29:55;;;;;;;2.08;1.20;;;20.00;89.80;;;;;;6274838;22;46680;-69
2022/11/05 05:32:22;;;;;;;1.58;0.93;;;20.00;89.40;;;;;;6274155;22;45406;-69
2022/11/05 05:34:49;;;;;;;1.75;1.10;;;20.00;89.30;;;;;;6275033;22;45295;-68
2022/11/05 05:37:15;;;;;;;2.63;1.20;;;20.00;89.40;;;;;;6274029;22;45522;-68
2022/11/05 05:39:43;;;;;;;1.85;1.15;;;20.00;89.20;;;;;;6274512;22;47510;-69
2022/11/05 05:42:11;;;;;;;1.70;1.17;;;20.00;89.00;;;;;;6274859;22;45240;-69
2022/11/05 05:44:38;;;;;;;2.20;1.40;;;20.00;88.90;;;;;;6272143;22;45408;-68
2022/11/05 05:47:05;;;;;;;2.30;1.17;;;20.00;89.00;;;;;;6273926;22;45508;-68
2022/11/05 05:49:32;;;;;;;1.40;0.90;;;20.00;88.90;;;;;;6272702;22;47147;-70
2022/11/05 05:51:59;;;;;;;2.13;1.05;;;20.00;89.40;;;;;;6275094;22;45260;-69
2022/11/05 05:54:25;;;;;;;2.40;1.23;;;20.00;89.00;;;;;;6274444;22;45355;-70
2022/11/05 05:56:52;;;;;;;1.30;0.98;;;20.00;89.10;;;;;;6274654;22;45318;-69
2022/11/05 05:59:20;;;;;;;1.67;1.08;;;20.00;89.20;;;;;;6274708;22;47272;-70
2022/11/05 06:01:47;;;;;;;1.88;1.05;;;20.00;89.20;;;;;;6274184;22;45326;-69
2022/11/05 06:04:14;;;;;;;1.50;0.93;;;20.00;89.20;;;;;;6274952;22;45254;-69
2022/11/05 06:06:41;;;;;;;2.00;1.17;;;20.00;89.20;;;;;;6274503;22;45648;-70
2022/11/05 06:09:08;;;;;;;1.15;0.88;;;20.00;89.30;;;;;;6273257;22;47084;-69
2022/11/05 06:11:34;;;;;;;1.20;0.90;;;20.00;89.10;;;;;;6274319;22;45315;-70
2022/11/05 06:14:01;;;;;;;1.52;0.98;;;20.00;89.00;;;;;;6275095;22;45275;-69
2022/11/05 06:16:34;;;;;;;2.13;1.20;;;20.00;89.10;;;;;;6275036;22;45339;-69
2022/11/05 06:19:01;;;;;;;1.92;1.20;;;20.00;89.10;;;;;;6272560;22;46348;-70
2022/11/05 06:21:28;;;;;;;2.25;1.00;;;20.00;88.60;;;;;;6272640;22;45315;-70
2022/11/05 06:23:55;;;;;;;2.35;1.15;;;20.00;88.40;;;;;;6272809;22;45252;-70
2022/11/05 06:26:21;;;;;;;2.30;1.30;;;20.00;88.40;;;;;;6274990;22;45271;-69
2022/11/05 06:28:48;;;;;;;3.85;1.00;;;20.00;88.30;;;;;;6273215;22;47509;-69
2022/11/05 06:31:15;;;;;;;1.80;1.20;;;20.00;88.30;;;;;;6275141;22;45348;-69
2022/11/05 06:33:43;;;;;;;3.03;1.20;;;20.00;88.10;;;;;;6274300;22;45277;-70
2022/11/05 06:36:14;;;;;;;2.55;1.05;;;20.00;88.20;;;;;;6272014;22;45207;-69
2022/11/05 06:38:41;;;;;;;3.00;1.30;;;20.00;88.10;;;;;;6273549;22;46564;-70
2022/11/05 06:41:08;;;;;;;1.88;1.30;;;20.00;88.30;;;;;;6273679;22;45285;-70
2022/11/05 06:43:35;;;;;;;1.85;1.10;;;20.00;89.30;;;;;;6273396;22;45284;-70
2022/11/05 06:46:03;;;;;;;1.80;1.00;;;20.00;88.50;;;;;;6271016;22;45353;-70
2022/11/05 06:48:30;;;;;;;1.65;1.10;;;20.00;88.20;;;;;;6272011;22;48009;-69
2022/11/05 06:50:58;;;;;;;2.63;1.02;;;20.00;88.20;;;;;;6273168;22;45191;-69
2022/11/05 06:53:25;;;;;;;1.40;1.00;;;20.00;87.90;;;;;;6273740;22;45434;-69
2022/11/05 06:55:52;;;;;;;1.60;1.08;;;20.00;88.00;;;;;;6274820;22;45374;-70
2022/11/05 06:58:18;;;;;;;1.75;1.13;;;20.00;87.80;;;;;;6272522;22;46558;-69
2022/11/05 07:00:45;;;;;;;1.98;1.20;;;20.00;87.90;;;;;;6274376;22;45225;-69
2022/11/05 07:03:12;;;;;;;1.88;1.23;;;20.00;87.50;;;;;;6273703;22;45272;-70
2022/11/05 07:05:42;;;;;;;1.75;1.10;;;20.00;87.50;;;;;;6273947;22;45152;-69
2022/11/05 07:08:11;;;;;;;2.88;1.23;;;20.00;87.40;;;;;;6273709;22;45459;-69
2022/11/05 07:10:37;;;;;;;4.32;1.23;;;20.00;87.60;;;;;;6273073;22;45239;-69
2022/11/05 07:13:04;;;;;;;3.45;1.20;;;20.00;87.20;;;;;;6274066;22;45295;-70
2022/11/05 07:15:31;;;;;;;2.33;1.27;;;20.00;87.20;;;;;;6273718;22;45362;-70
2022/11/05 07:17:58;;;;;;;1.92;1.10;;;20.00;87.20;;;;;;6272440;22;46641;-69
2022/11/05 07:20:25;;;;;;;3.15;1.30;;;20.00;87.00;;;;;;6273985;22;45325;-69
2022/11/05 07:23:00;;;;;;;3.95;1.33;;;20.00;87.10;;;;;;6273896;22;45368;-70
2022/11/05 07:25:28;;;;;;;2.38;1.13;;;20.00;87.00;;;;;;6274356;22;45466;-69
2022/11/05 07:27:55;;;;;;;1.70;1.17;;;20.00;87.10;;;;;;6272609;22;47250;-69
2022/11/05 07:30:22;;;;;;;1.60;1.20;;;20.00;87.00;;;;;;6274097;22;45333;-72
2022/11/05 07:32:48;;;;;;;3.35;1.38;;;20.00;86.90;;;;;;6274530;22;45229;-71
2022/11/05 07:35:15;;;;;;;1.30;1.10;;;20.00;86.80;;;;;;6272737;22;45519;-69
2022/11/05 07:37:43;;;;;;;3.42;1.30;;;20.00;86.30;;;;;;6273396;22;46358;-70
2022/11/05 07:40:11;;;;;;;2.47;1.10;;;20.00;86.70;;;;;;6273419;22;45405;-70
2022/11/05 07:42:42;;;;;;;2.08;1.17;;;20.00;86.60;;;;;;6274847;22;45396;-69
2022/11/05 07:45:10;;;;;;;2.20;1.27;;;20.00;86.80;;;;;;6271452;22;45263;-71
2022/11/05 07:47:37;;;;;;;2.28;1.27;;;20.00;86.70;;;;;;6269892;22;48879;-69
2022/11/05 07:50:05;;;;;;;2.05;1.23;;;20.00;86.60;;;;;;6273918;22;45261;-69
2022/11/05 07:52:32;;;;;;;2.33;1.17;;;20.00;86.60;;;;;;6246550;22;45344;-69
2022/11/05 07:54:59;;;;;;;8.10;1.20;;;20.00;86.80;;;;;;6273564;22;45286;-70
2022/11/05 07:57:26;;;;;;;1.95;1.00;;;20.00;86.40;;;;;;6273053;22;46384;-70
2022/11/05 07:59:54;;;;;;;1.73;1.08;;;20.00;87.30;;;;;;6273042;22;45404;-70
2022/11/05 08:02:21;;;;;;;1.00;0.88;;;20.00;86.20;;;;;;6273175;22;45325;-69
2022/11/05 08:04:48;;;;;;;1.65;1.00;;;20.00;86.40;;;;;;6270787;22;45382;-70
2022/11/05 08:07:15;;;;;;;2.20;1.15;;;20.00;86.40;;;;;;6269603;22;45349;-70
2022/11/05 08:09:41;;;;;;;1.77;1.20;;;20.00;86.30;;;;;;6264765;22;45289;-71
2022/11/05 08:12:09;;;;;;;2.55;1.10;;;20.00;86.00;;;;;;6267075;22;45416;-71
2022/11/05 08:14:35;;;;;;;1.52;1.00;;;20.00;86.10;;;;;;6266385;22;45228;-70
2022/11/05 08:17:04;;;;;;;1.13;0.93;;;20.00;87.00;;;;;;6263928;22;47326;-71
2022/11/05 08:19:31;;;;;;;2.00;0.95;;;20.00;86.20;;;;;;6269145;22;45203;-70
2022/11/05 08:21:58;;;;;;;1.60;0.80;;;20.00;86.30;;;;;;6272461;22;45341;-70
2022/11/05 08:24:24;;;;;;;3.33;1.17;;;20.00;86.30;;;;;;6271589;22;45235;-70
2022/11/05 08:26:52;;;;;;;3.45;1.20;;;20.00;86.30;;;;;;6272053;22;47253;-70
2022/11/05 08:29:19;;;;;;;3.70;1.08;;;20.00;86.30;;;;;;6272505;22;45324;-69
2022/11/05 08:31:45;;;;;;;2.25;1.10;;;20.00;86.10;;;;;;6273418;22;45390;-69
2022/11/05 08:34:14;;;;;;;2.75;1.30;;;20.00;85.80;;;;;;6273208;22;45203;-68
2022/11/05 08:36:45;;;;;;;9.95;1.27;;;20.00;85.90;;;;;;6270147;22;46446;-68
2022/11/05 08:39:12;;;;;;;4.30;1.20;;;20.00;85.80;;;;;;6269857;22;45734;-69
2022/11/05 08:41:39;;;;;;;2.75;1.33;;;20.00;85.50;;;;;;6273879;22;45307;-69
2022/11/05 08:44:07;;;;;;;2.33;1.05;;;20.00;85.80;;;;;;6271160;22;45393;-69
2022/11/05 08:46:35;;;;;;;2.92;1.30;;;20.10;85.90;;;;;;6273312;22;45274;-68
2022/11/05 08:49:02;;;;;;;3.63;1.15;;;20.10;85.90;;;;;;6271750;22;45528;-69
2022/11/05 08:51:30;;;;;;;3.97;1.27;;;20.00;85.70;;;;;;6271752;22;45418;-69
2022/11/05 08:53:57;;;;;;;3.00;1.10;;;20.00;85.80;;;;;;6273668;22;45343;-69
2022/11/05 08:56:23;;;;;;;1.83;1.17;;;20.00;85.80;;;;;;6271131;22;47947;-69
2022/11/05 08:58:51;;;;;;;2.33;1.35;;;20.00;85.70;;;;;;6273115;22;45203;-69
2022/11/05 09:01:17;;;;;;;2.63;1.20;;;20.00;86.20;;;;;;6268897;22;45274;-69
2022/11/05 09:03:44;;;;;;;1.60;1.17;;;20.00;85.90;;;;;;6273597;22;45351;-69
2022/11/05 09:06:11;;;;;;;3.75;1.20;;;20.00;86.00;;;;;;6273495;22;47404;-69
2022/11/05 09:08:39;;;;;;;3.42;1.17;;;20.00;85.70;;;;;;6271927;22;45704;-68
2022/11/05 09:11:06;;;;;;;3.28;1.17;;;20.00;85.60;;;;;;6274021;22;45229;-69
2022/11/05 09:13:33;;;;;;;2.58;1.08;;;20.00;85.50;;;;;;6273554;22;45256;-69
2022/11/05 09:15:59;;;;;;;3.53;1.17;;;20.10;85.60;;;;;;6272381;22;45410;-69
2022/11/05 09:18:26;;;;;;;3.05;1.23;;;20.10;85.50;;;;;;6272318;22;45334;-69
2022/11/05 09:20:53;;;;;;;1.98;1.10;;;20.00;85.40;;;;;;6272652;22;45184;-69
2022/11/05 09:23:20;;;;;;;1.40;0.80;;;20.10;85.60;;;;;;6273832;22;45406;-69
2022/11/05 09:25:49;;;;;;;2.03;1.00;;;20.10;85.20;;;;;;6272976;22;45439;-69
2022/11/05 09:28:17;;;;;;;1.65;1.08;;;20.10;85.20;;;;;;6268090;22;45368;-69
2022/11/05 09:30:46;;;;;;;1.65;1.05;;;20.10;85.10;;;;;;6272057;22;45393;-69
2022/11/05 09:33:13;;;;;;;2.83;1.13;;;20.10;85.20;;;;;;6271972;22;45524;-69
2022/11/05 09:35:41;;;;;;;2.13;1.10;;;20.10;85.30;;;;;;6273859;22;47547;-68
2022/11/05 09:38:08;;;;;;;3.63;1.25;;;20.00;85.90;;;;;;6267797;22;45411;-69
2022/11/05 09:40:39;;;;;;;1.95;1.00;;;20.00;85.30;;;;;;6272955;22;45352;-69
2022/11/05 09:43:11;;;;;;;1.48;0.90;;;20.00;85.20;;;;;;6272348;22;45403;-69
2022/11/05 09:45:37;;;;;;;2.05;1.00;;;20.00;85.30;;;;;;6273104;22;46235;-69
2022/11/05 09:48:11;;;;;;;2.78;1.00;;;20.00;85.00;;;;;;6270851;22;45412;-68
2022/11/05 09:50:42;;;;;;;1.98;1.05;;;20.00;85.00;;;;;;6273122;22;45279;-69
2022/11/05 09:53:12;;;;;;;3.05;1.10;;;20.00;84.90;;;;;;6271513;22;45276;-69
2022/11/05 09:55:42;;;;;;;3.55;1.23;;;20.00;85.40;;;;;;6272777;22;47151;-69
2022/11/05 09:58:16;;;;;;;1.67;0.90;;;20.00;85.90;;;;;;6272028;22;45211;-69
2022/11/05 10:00:47;;;;;;;2.47;1.00;;;20.00;85.70;;;;;;6271823;22;45332;-69
2022/11/05 10:03:19;;;;;;;1.55;0.90;;;20.00;85.40;;;;;;6272289;22;45473;-68
2022/11/05 10:05:48;;;;;;;1.13;0.80;;;20.00;85.40;;;;;;6271706;22;45325;-68
2022/11/05 10:08:20;;;;;;;1.83;1.13;;;20.10;85.70;;;;;;6273922;22;45298;-68
2022/11/05 10:10:50;;;;;;;2.85;1.05;;;20.10;85.50;;;;;;6271068;22;45298;-68
2022/11/05 10:13:25;;;;;;;2.88;1.25;;;20.10;85.60;;;;;;6274673;22;45402;-68
2022/11/05 10:16:01;;;;;;;4.10;1.10;;;20.10;85.60;;;;;;6273846;22;47359;-68
2022/11/05 10:18:32;;;;;;;1.92;0.82;;;20.10;85.70;;;;;;6273295;22;45322;-69
2022/11/05 10:21:00;;;;;;;1.55;0.90;;;20.10;85.60;;;;;;6274176;22;45344;-68
2022/11/05 10:23:28;;;;;;;3.15;0.90;;;20.10;85.60;;;;;;6274164;22;45278;-69
2022/11/05 10:25:59;;;;;;;1.55;0.90;;;20.10;85.60;;;;;;6273807;22;47374;-68
2022/11/05 10:28:29;;;;;;;1.50;0.77;;;20.10;85.60;;;;;;6272929;22;45436;-69
2022/11/05 10:30:58;;;;;;;1.58;0.93;;;20.10;85.70;;;;;;6273871;22;45192;-68
2022/11/05 10:33:30;;;;;;;3.95;0.90;;;20.10;85.90;;;;;;6270762;22;45295;-68
2022/11/05 10:36:01;;;;;;;1.05;0.63;;;20.10;85.80;;;;;;6272683;22;47984;-69
2022/11/05 10:38:28;;;;;;;3.03;1.13;;;20.10;85.50;;;;;;6271126;22;45346;-69
2022/11/05 10:41:03;;;;;;;1.13;0.75;;;20.10;86.00;;;;;;6272139;22;45338;-69
2022/11/05 10:43:39;;;;;;;3.42;0.63;;;20.10;85.50;;;;;;6272935;22;45404;-69
2022/11/05 10:46:18;;;;;;;1.00;0.65;;;20.10;85.40;;;;;;6270484;22;47393;-69
2022/11/05 10:49:04;;;;;;;1.10;0.90;;;20.00;85.20;;;;;;6272298;22;45350;-69
2022/11/05 10:51:32;;;;;;;2.73;0.93;;;20.10;85.40;;;;;;6271132;22;45486;-68
2022/11/05 10:54:05;;;;;;;1.13;0.75;;;20.10;85.60;;;;;;6269395;22;45154;-69
2022/11/05 10:56:34;;;;;;;1.35;0.90;;;20.10;85.80;;;;;;6270864;22;46277;-68
2022/11/05 10:59:04;;;;;;;0.80;0.60;;;20.10;86.10;;;;;;6271895;22;45699;-69
2022/11/05 11:01:32;;;;;;;1.25;0.88;;;20.10;85.80;;;;;;6273337;22;45471;-68
2022/11/05 11:04:12;;;;;;;3.60;0.82;;;20.10;85.80;;;;;;6268567;22;45342;-69
2022/11/05 11:06:48;;;;;;;2.67;0.90;;;20.10;86.10;;;;;;6272082;22;46582;-68
2022/11/05 11:09:21;;;;;;;3.33;0.85;;;20.10;85.90;;;;;;6271696;22;45283;-68
2022/11/05 11:11:57;;;;;;;2.50;0.70;;;20.10;85.80;;;;;;6273447;22;45429;-68
2022/11/05 11:14:25;;;;;;;2.72;1.13;;;20.10;85.70;;;;;;6273534;22;45426;-69
2022/11/05 11:16:56;;;;;;;0.88;0.60;;;20.10;85.30;;;;;;6271086;22;47166;-68
2022/11/05 11:19:28;;;;;;;1.23;0.93;;;20.10;85.20;;;;;;6273198;22;45312;-67
2022/11/05 11:22:16;;;;;;;1.65;0.60;;;20.10;85.20;;;;;;6272947;22;45205;-69
2022/11/05 11:24:45;;;;;;;1.95;0.90;;;20.10;84.90;;;;;;6272659;22;45282;-68
2022/11/05 11:27:16;;;;;;;1.45;0.90;;;20.10;84.60;;;;;;6271710;22;46977;-68
2022/11/05 11:29:50;;;;;;;1.35;0.85;;;20.10;84.30;;;;;;6272288;22;45897;-68
2022/11/05 11:32:20;;;;;;;2.15;0.88;;;20.10;84.70;;;;;;6272964;22;45207;-68
2022/11/05 11:34:50;;;;;;;2.28;1.00;;;20.00;84.00;;;;;;6272217;22;45362;-69
2022/11/05 11:37:19;;;;;;;1.17;0.93;;;20.10;84.30;;;;;;6273397;22;46847;-68
2022/11/05 11:39:50;;;;;;;1.10;0.70;;;20.10;84.30;;;;;;6271038;22;45407;-69
2022/11/05 11:42:23;;;;;;;1.42;0.80;;;20.10;84.00;;;;;;6272392;22;45213;-68
2022/11/05 11:44:52;;;;;;;1.33;0.80;;;20.10;83.90;;;;;;6272917;22;45438;-68
2022/11/05 11:47:22;;;;;;;2.33;1.00;;;20.10;84.50;;;;;;6270538;22;45285;-69
2022/11/05 11:49:52;;;;;;;3.15;1.48;;;20.10;84.50;;;;;;6272330;22;45246;-69
2022/11/05 11:52:28;;;;;;;4.60;0.60;;;20.00;84.50;;;;;;6272665;22;45427;-68
2022/11/05 11:55:16;;;;;;;2.60;0.80;;;20.10;84.60;;;;;;6273369;22;45199;-69
2022/11/05 11:57:45;;;;;;;2.95;0.80;;;20.10;84.80;;;;;;6271735;22;45310;-69
2022/11/05 12:00:15;;;;;;;2.40;0.90;;;20.10;84.50;;;;;;6272885;22;45310;-69
2022/11/05 12:02:57;;;;;;;2.50;0.82;;;20.00;84.90;;;;;;6272080;22;45370;-69
2022/11/05 12:05:32;;;;;;;1.05;0.68;;;20.10;84.40;;;;;;6271885;22;45384;-69
2022/11/05 12:08:07;;;;;;;4.50;1.13;;;20.10;84.50;;;;;;6272692;22;45439;-68
2022/11/05 12:10:47;;;;;;;1.80;0.80;;;20.10;84.90;;;;;;6273571;22;45617;-68
2022/11/05 12:13:45;;;;;;;1.60;0.65;;;20.10;84.70;;;;;;6274716;22;45370;-69
2022/11/05 12:16:23;;;;;;;2.35;0.73;;;20.10;84.90;;;;;;6272916;22;45226;-69
2022/11/05 12:18:56;;;;;;;1.73;0.80;;;20.10;85.00;;;;;;6273544;22;46242;-69
2022/11/05 12:21:30;;;;;;;3.15;0.90;;;20.10;85.10;;;;;;6274953;22;45295;-68
2022/11/05 12:24:16;;;;;;;1.85;1.00;;;20.10;84.60;;;;;;6273937;22;45287;-68
2022/11/05 12:26:53;;;;;;;1.48;0.85;;;20.10;84.90;;;;;;6274253;22;45301;-69
2022/11/05 12:29:38;;;;;;;1.10;0.80;;;20.10;84.10;;;;;;6272836;22;45428;-68
2022/11/05 12:32:24;;;;;;;2.50;0.77;;;20.10;84.70;;;;;;6274885;22;45267;-68
2022/11/05 12:35:01;;;;;;;1.15;0.60;;;20.00;84.50;;;;;;6272930;22;45316;-68
2022/11/05 12:37:34;;;;;;;1.48;0.70;;;20.00;84.50;;;;;;6272128;22;45422;-69
2022/11/05 12:40:18;;;;;;;1.50;0.65;;;20.00;85.30;;;;;;6270561;22;47279;-68
2022/11/05 12:42:57;;;;;;;1.33;0.70;;;20.00;84.50;;;;;;6274177;22;45300;-69
2022/11/05 12:45:35;;;;;;;1.15;0.60;;;20.00;84.40;;;;;;6274430;22;45391;-69
2022/11/05 12:48:19;;;;;;;1.27;0.80;;;20.00;84.60;;;;;;6273427;22;45270;-68
2022/11/05 12:50:52;;;;;;;1.98;0.93;;;20.00;84.60;;;;;;6274302;22;47499;-68
2022/11/05 12:53:49;;;;;;;1.52;0.65;;;20.00;84.60;;;;;;6273440;22;45291;-69
2022/11/05 12:56:25;;;;;;;1.40;0.80;;;20.10;84.40;;;;;;6272725;22;45233;-69
2022/11/05 12:58:58;;;;;;;0.98;0.63;;;20.10;85.10;;;;;;6273415;22;45211;-69
2022/11/05 13:01:33;;;;;;;1.00;0.80;;;20.10;84.70;;;;;;6274209;22;46285;-68
2022/11/05 13:04:07;;;;;;;0.80;0.68;;;20.10;85.10;;;;;;6274050;22;45380;-69
2022/11/05 13:06:39;;;;;;;0.98;0.70;;;20.10;85.00;;;;;;6273229;22;45427;-69
2022/11/05 13:09:12;;;;;;;0.73;0.60;;;20.10;85.20;;;;;;6273835;22;45428;-69
2022/11/05 13:11:44;;;;;;;1.15;0.70;;;20.10;85.00;;;;;;6274022;22;48676;-68
2022/11/05 13:14:14;;;;;;;2.00;0.63;;;20.10;85.10;;;;;;6274640;22;45260;-69
2022/11/05 13:16:45;;;;;;;0.80;0.77;;;20.00;84.90;;;;;;6273255;22;45291;-69
2022/11/05 13:19:18;;;;;;;1.27;0.63;;;20.00;84.80;;;;;;6273643;22;45287;-68
2022/11/05 13:21:50;;;;;;;2.40;0.68;;;20.00;84.50;;;;;;6274249;22;46233;-69
2022/11/05 13:24:20;;;;;;;0.93;0.57;;;20.00;84.70;;;;;;6273698;22;45268;-68
2022/11/05 13:26:53;;;;;;;1.13;0.70;;;20.00;84.60;;;;;;6274327;22;45279;-68
2022/11/05 13:29:25;;;;;;;1.90;0.68;;;20.00;84.50;;;;;;6272949;22;45344;-69
2022/11/05 13:31:57;;;;;;;1.98;0.60;;;20.00;84.50;;;;;;6274209;22;46551;-68
2022/11/05 13:34:25;;;;;;;0.88;0.57;;;20.00;84.40;;;;;;6273970;22;45262;-69
2022/11/05 13:39:47;;;;;;;1.27;0.70;;;20.00;84.20;;;;;;6273576;22;45247;-69
2022/11/05 13:42:54;;;;;;;0.75;0.50;;;20.00;84.40;;;;;;6273155;22;47072;-68
2022/11/05 13:45:37;;;;;;;0.95;0.60;;;20.00;84.50;;;;;;6274396;22;45194;-68
2022/11/05 13:48:27;;;;;;;0.50;0.50;;;20.00;84.70;;;;;;6272537;22;45346;-68